createdAt,value
2018-12-11T00:02:24.404Z,0.60
2018-12-11T00:04:53.550Z,0.60
2018-12-11T00:07:22.677Z,0.60
2018-12-11T00:09:51.846Z,0.60
2018-12-11T00:12:20.962Z,0.70
2018-12-11T00:14:50.062Z,0.70
2018-12-11T00:17:19.213Z,0.80
2018-12-11T00:19:48.418Z,0.80
2018-12-11T00:22:17.546Z,0.80
2018-12-11T00:24:46.691Z,0.90
2018-12-11T00:27:15.859Z,0.90
2018-12-11T00:29:44.906Z,0.80
2018-12-11T00:32:14.023Z,0.90
2018-12-11T00:34:43.122Z,0.90
2018-12-11T00:37:12.279Z,0.80
2018-12-11T00:39:41.415Z,0.90
2018-12-11T00:42:10.518Z,0.90
2018-12-11T00:44:39.688Z,0.80
2018-12-11T00:47:09.130Z,0.90
2018-12-11T00:49:38.273Z,0.90
2018-12-11T00:52:07.386Z,0.90
2018-12-11T00:54:36.491Z,0.90
2018-12-11T00:57:05.646Z,0.90
2018-12-11T00:59:35.438Z,0.90
2018-12-11T01:02:04.565Z,0.80
2018-12-11T01:04:33.728Z,0.80
2018-12-11T01:07:02.880Z,0.80
2018-12-11T01:09:32.003Z,0.80
2018-12-11T01:12:01.064Z,0.80
2018-12-11T01:14:30.202Z,0.80
2018-12-11T01:16:59.370Z,0.90
2018-12-11T01:19:28.508Z,0.80
2018-12-11T01:21:57.607Z,0.80
2018-12-11T01:24:26.734Z,0.80
2018-12-11T01:26:55.897Z,0.90
2018-12-11T01:29:25.039Z,0.90
2018-12-11T01:31:54.105Z,0.90
2018-12-11T01:34:23.270Z,0.90
2018-12-11T01:36:52.407Z,0.90
2018-12-11T01:39:21.540Z,0.90
2018-12-11T01:41:50.626Z,0.90
2018-12-11T01:44:19.838Z,0.90
2018-12-11T01:46:48.951Z,0.90
2018-12-11T01:49:18.108Z,0.90
2018-12-11T01:51:47.240Z,0.90
2018-12-11T01:54:16.482Z,0.90
2018-12-11T01:56:45.651Z,0.90
2018-12-11T01:59:14.887Z,0.90
2018-12-11T02:01:43.975Z,0.90
2018-12-11T02:04:13.162Z,0.90
2018-12-11T02:06:42.265Z,0.90
2018-12-11T02:09:11.431Z,1.00
2018-12-11T02:11:40.577Z,0.90
2018-12-11T02:14:09.731Z,0.90
2018-12-11T02:16:38.866Z,0.90
2018-12-11T02:19:07.998Z,0.80
2018-12-11T02:21:42.010Z,0.90
2018-12-11T02:24:08.248Z,0.90
2018-12-11T02:26:37.329Z,0.90
2018-12-11T02:29:06.454Z,0.90
2018-12-11T02:31:35.595Z,0.90
2018-12-11T02:34:04.765Z,0.90
2018-12-11T02:36:34.006Z,0.90
2018-12-11T02:39:03.231Z,0.90
2018-12-11T02:41:32.397Z,0.90
2018-12-11T02:44:01.542Z,0.90
2018-12-11T02:46:30.695Z,0.90
2018-12-11T02:48:59.789Z,1.00
2018-12-11T02:51:28.950Z,1.00
2018-12-11T02:53:58.046Z,1.00
2018-12-11T02:56:29.223Z,0.90
2018-12-11T02:58:58.292Z,0.90
2018-12-11T03:01:27.471Z,1.00
2018-12-11T03:03:56.592Z,0.90
2018-12-11T03:06:25.724Z,0.90
2018-12-11T03:08:54.810Z,1.00
2018-12-11T03:11:24.008Z,1.00
2018-12-11T03:13:53.165Z,1.00
2018-12-11T03:16:22.312Z,1.00
2018-12-11T03:18:51.422Z,1.00
2018-12-11T03:21:20.555Z,0.90
2018-12-11T03:23:49.713Z,0.90
2018-12-11T03:26:18.748Z,1.00
2018-12-11T03:28:47.897Z,1.00
2018-12-11T03:31:17.030Z,1.10
2018-12-11T03:33:46.166Z,1.10
2018-12-11T03:36:15.271Z,1.00
2018-12-11T03:38:44.346Z,1.00
2018-12-11T03:41:13.484Z,1.00
2018-12-11T03:43:42.623Z,1.00
2018-12-11T03:46:11.654Z,1.00
2018-12-11T03:48:40.800Z,1.00
2018-12-11T03:51:09.922Z,1.00
2018-12-11T03:53:39.095Z,1.00
2018-12-11T03:56:08.165Z,1.00
2018-12-11T03:58:37.356Z,0.90
2018-12-11T04:01:06.420Z,1.00
2018-12-11T04:03:35.605Z,1.00
2018-12-11T04:06:04.652Z,1.00
2018-12-11T04:08:33.791Z,1.00
2018-12-11T04:11:02.890Z,1.10
2018-12-11T04:13:32.214Z,1.10
2018-12-11T04:16:01.303Z,1.10
2018-12-11T04:18:30.478Z,1.10
2018-12-11T04:20:59.918Z,1.10
2018-12-11T04:23:29.017Z,1.10
2018-12-11T04:25:58.106Z,1.10
2018-12-11T04:28:27.264Z,1.10
2018-12-11T04:30:56.357Z,1.10
2018-12-11T04:33:27.249Z,1.10
2018-12-11T04:35:56.404Z,1.10
2018-12-11T04:38:25.543Z,1.10
2018-12-11T04:40:54.671Z,1.10
2018-12-11T04:43:23.896Z,1.00
2018-12-11T04:45:53.031Z,1.10
2018-12-11T04:48:22.125Z,1.20
2018-12-11T04:50:51.321Z,1.20
2018-12-11T04:53:20.394Z,1.20
2018-12-11T04:55:49.562Z,1.10
2018-12-11T04:58:18.628Z,1.10
2018-12-11T05:00:47.766Z,1.10
2018-12-11T05:03:16.879Z,1.10
2018-12-11T05:05:46.023Z,1.20
2018-12-11T05:08:15.879Z,1.10
2018-12-11T05:10:45.539Z,1.20
2018-12-11T05:13:14.659Z,1.20
2018-12-11T05:15:43.758Z,1.20
2018-12-11T05:18:12.910Z,1.20
2018-12-11T05:20:42.008Z,1.20
2018-12-11T05:23:11.116Z,1.10
2018-12-11T05:25:40.278Z,1.10
2018-12-11T05:28:09.397Z,1.20
2018-12-11T05:30:38.491Z,1.10
2018-12-11T05:33:07.679Z,1.20
2018-12-11T05:35:36.808Z,1.10
2018-12-11T05:38:07.937Z,1.10
2018-12-11T05:40:37.087Z,1.10
2018-12-11T05:43:06.261Z,1.10
2018-12-11T05:45:35.357Z,1.20
2018-12-11T05:48:05.566Z,1.20
2018-12-11T05:50:34.817Z,1.20
2018-12-11T05:53:03.856Z,1.20
2018-12-11T05:55:32.920Z,1.20
2018-12-11T05:58:02.037Z,1.20
2018-12-11T06:00:31.152Z,1.20
2018-12-11T06:03:00.750Z,1.20
2018-12-11T06:05:30.484Z,1.20
2018-12-11T06:07:59.626Z,1.20
2018-12-11T06:10:28.701Z,1.20
2018-12-11T06:12:57.798Z,1.20
2018-12-11T06:15:26.819Z,1.10
2018-12-11T06:17:55.968Z,1.20
2018-12-11T06:20:25.178Z,1.20
2018-12-11T06:22:54.367Z,1.20
2018-12-11T06:25:23.416Z,1.20
2018-12-11T06:27:53.415Z,1.20
2018-12-11T06:30:22.498Z,1.10
2018-12-11T06:32:51.706Z,1.10
2018-12-11T06:35:20.866Z,1.00
2018-12-11T06:37:50.035Z,0.90
2018-12-11T06:40:19.221Z,0.90
2018-12-11T06:42:48.962Z,0.90
2018-12-11T06:45:18.133Z,0.90
2018-12-11T06:47:47.266Z,0.90
2018-12-11T06:50:16.386Z,0.90
2018-12-11T06:52:45.539Z,0.90
2018-12-11T06:55:14.621Z,1.00
2018-12-11T06:57:43.772Z,1.10
2018-12-11T07:00:12.898Z,1.10
2018-12-11T07:02:41.993Z,1.10
2018-12-11T07:05:11.085Z,1.10
2018-12-11T07:07:40.300Z,1.10
2018-12-11T07:10:09.731Z,1.10
2018-12-11T07:12:38.945Z,1.00
2018-12-11T07:15:09.293Z,0.90
2018-12-11T07:17:38.440Z,0.90
2018-12-11T07:20:08.285Z,0.80
2018-12-11T07:22:37.484Z,0.70
2018-12-11T07:25:06.615Z,0.70
2018-12-11T07:27:35.826Z,0.70
2018-12-11T07:30:05.935Z,0.70
2018-12-11T07:32:35.037Z,0.70
2018-12-11T07:35:04.350Z,0.70
2018-12-11T07:37:33.499Z,0.80
2018-12-11T07:40:02.733Z,0.90
2018-12-11T07:42:31.867Z,0.90
2018-12-11T07:45:01.015Z,0.90
2018-12-11T07:47:30.131Z,0.90
2018-12-11T07:49:59.354Z,0.90
2018-12-11T07:52:28.524Z,1.00
2018-12-11T07:54:57.626Z,1.00
2018-12-11T07:57:26.758Z,0.90
2018-12-11T07:59:55.888Z,0.80
2018-12-11T08:02:24.971Z,0.80
2018-12-11T08:04:54.068Z,0.70
2018-12-11T08:07:23.203Z,0.70
2018-12-11T08:09:52.310Z,0.70
2018-12-11T08:12:21.402Z,0.70
2018-12-11T08:14:50.593Z,0.70
2018-12-11T08:17:19.659Z,0.70
2018-12-11T08:19:48.770Z,0.80
2018-12-11T08:22:17.973Z,0.90
2018-12-11T08:24:47.124Z,1.00
2018-12-11T08:27:16.239Z,1.10
2018-12-11T08:29:45.306Z,1.30
2018-12-11T08:32:14.482Z,1.30
2018-12-11T08:34:43.566Z,1.30
2018-12-11T08:37:12.699Z,1.30
2018-12-11T08:39:41.853Z,1.40
2018-12-11T08:42:11.003Z,1.40
2018-12-11T08:44:40.105Z,1.40
2018-12-11T08:47:09.203Z,1.40
2018-12-11T08:49:38.242Z,1.40
2018-12-11T08:52:07.411Z,1.30
2018-12-11T08:54:36.522Z,1.30
2018-12-11T08:57:05.718Z,1.40
2018-12-11T08:59:34.815Z,1.40
2018-12-11T09:02:04.123Z,1.40
2018-12-11T09:04:33.207Z,1.50
2018-12-11T09:07:02.322Z,1.40
2018-12-11T09:09:31.589Z,1.40
2018-12-11T09:12:00.729Z,1.40
2018-12-11T09:14:29.862Z,1.50
2018-12-11T09:16:58.890Z,1.50
2018-12-11T09:19:28.927Z,1.50
2018-12-11T09:21:57.993Z,1.50
2018-12-11T09:24:27.123Z,1.50
2018-12-11T09:26:56.230Z,1.60
2018-12-11T09:29:25.322Z,1.60
2018-12-11T09:31:54.538Z,1.60
2018-12-11T09:34:23.695Z,1.60
2018-12-11T09:36:53.827Z,1.60
2018-12-11T09:39:22.953Z,1.60
2018-12-11T09:41:52.042Z,1.60
2018-12-11T09:44:21.135Z,1.60
2018-12-11T09:46:50.218Z,1.60
2018-12-11T09:49:19.222Z,1.60
2018-12-11T09:51:48.316Z,1.60
2018-12-11T09:54:17.407Z,1.70
2018-12-11T09:56:46.510Z,1.70
2018-12-11T09:59:15.571Z,1.80
2018-12-11T10:01:44.722Z,1.80
2018-12-11T10:04:14.003Z,1.90
2018-12-11T10:06:43.168Z,1.90
2018-12-11T10:09:12.199Z,1.90
2018-12-11T10:11:41.307Z,1.90
2018-12-11T10:14:10.494Z,1.90
2018-12-11T10:16:39.678Z,1.90
2018-12-11T10:19:08.721Z,2.10
2018-12-11T10:21:37.891Z,2.10
2018-12-11T10:24:07.075Z,2.10
2018-12-11T10:26:36.314Z,2.10
2018-12-11T10:29:05.490Z,2.10
2018-12-11T10:31:34.749Z,2.00
2018-12-11T10:34:03.929Z,2.00
2018-12-11T10:36:33.063Z,2.00
2018-12-11T10:39:02.139Z,2.10
2018-12-11T10:41:31.323Z,2.10
2018-12-11T10:44:00.497Z,2.20
2018-12-11T10:46:33.791Z,2.20
2018-12-11T10:49:00.884Z,2.20
2018-12-11T10:51:30.015Z,2.20
2018-12-11T10:53:59.122Z,2.20
2018-12-11T10:56:28.238Z,2.30
2018-12-11T10:58:57.412Z,2.30
2018-12-11T11:01:27.462Z,2.30
2018-12-11T11:03:56.571Z,2.40
2018-12-11T11:06:25.660Z,2.40
2018-12-11T11:08:54.839Z,2.30
2018-12-11T11:11:23.923Z,2.40
2018-12-11T11:13:53.096Z,2.30
2018-12-11T11:16:22.226Z,2.30
2018-12-11T11:18:51.379Z,2.30
2018-12-11T11:21:20.639Z,2.40
2018-12-11T11:23:49.736Z,2.30
2018-12-11T11:26:18.880Z,2.40
2018-12-11T11:28:48.051Z,2.40
2018-12-11T11:31:17.139Z,2.30
2018-12-11T11:33:46.874Z,2.20
2018-12-11T11:36:15.961Z,2.00
2018-12-11T11:38:46.454Z,1.90
2018-12-11T11:41:15.558Z,1.80
2018-12-11T11:43:44.957Z,1.60
2018-12-11T11:46:14.064Z,1.50
2018-12-11T11:48:44.387Z,1.40
2018-12-11T11:51:13.800Z,1.50
2018-12-11T11:53:42.931Z,1.50
2018-12-11T11:56:12.086Z,1.70
2018-12-11T11:58:41.158Z,1.80
2018-12-11T12:01:10.411Z,1.90
2018-12-11T12:03:39.477Z,2.00
2018-12-11T12:06:08.663Z,2.10
2018-12-11T12:08:37.801Z,2.30
2018-12-11T12:11:10.226Z,2.30
2018-12-11T12:13:39.671Z,2.40
2018-12-11T12:16:08.827Z,2.40
2018-12-11T12:18:38.131Z,2.30
2018-12-11T12:21:07.321Z,2.20
2018-12-11T12:23:36.461Z,2.30
2018-12-11T12:26:05.578Z,2.30
2018-12-11T12:28:34.683Z,2.30
2018-12-11T12:31:03.809Z,2.30
2018-12-11T12:33:33.025Z,2.30
2018-12-11T12:36:02.195Z,2.30
2018-12-11T12:38:31.487Z,2.30
2018-12-11T12:41:01.808Z,2.20
2018-12-11T12:43:31.097Z,2.20
2018-12-11T12:46:00.476Z,2.20
2018-12-11T12:48:29.616Z,2.20
2018-12-11T12:50:59.756Z,2.10
2018-12-11T12:53:28.982Z,2.10
2018-12-11T12:55:58.207Z,2.10
2018-12-11T12:58:27.441Z,2.00
2018-12-11T13:00:56.935Z,2.00
2018-12-11T13:03:26.139Z,2.00
2018-12-11T13:05:55.331Z,2.00
2018-12-11T13:08:26.317Z,1.90
2018-12-11T13:10:56.231Z,1.90
2018-12-11T13:13:27.362Z,1.90
2018-12-11T13:15:56.715Z,1.90
2018-12-11T13:18:26.034Z,1.90
2018-12-11T13:20:55.214Z,1.90
2018-12-11T13:23:25.473Z,1.80
2018-12-11T13:25:54.870Z,1.80
2018-12-11T13:28:24.066Z,1.80
2018-12-11T13:30:53.225Z,1.80
2018-12-11T13:33:22.365Z,1.80
2018-12-11T13:35:51.522Z,1.80
2018-12-11T13:38:20.622Z,1.80
2018-12-11T13:40:49.987Z,1.80
2018-12-11T13:43:19.212Z,1.80
2018-12-11T13:45:48.566Z,1.80
2018-12-11T13:48:23.247Z,1.90
2018-12-11T13:50:49.706Z,2.00
2018-12-11T13:53:18.848Z,1.90
2018-12-11T13:55:47.946Z,2.00
2018-12-11T13:58:17.114Z,1.90
2018-12-11T14:00:46.292Z,1.90
2018-12-11T14:03:15.470Z,1.90
2018-12-11T14:05:44.579Z,1.90
2018-12-11T14:08:13.669Z,1.90
2018-12-11T14:10:43.508Z,1.80
2018-12-11T14:13:12.663Z,1.80
2018-12-11T14:15:41.872Z,1.80
2018-12-11T14:18:10.978Z,1.80
2018-12-11T14:20:40.128Z,1.80
2018-12-11T14:23:09.292Z,1.70
2018-12-11T14:25:38.436Z,1.80
2018-12-11T14:28:07.560Z,1.80
2018-12-11T14:30:36.671Z,1.80
2018-12-11T14:33:05.882Z,1.80
2018-12-11T14:35:35.200Z,1.80
2018-12-11T14:38:05.286Z,1.80
2018-12-11T14:40:34.411Z,1.80
2018-12-11T14:43:04.713Z,1.80
2018-12-11T14:45:33.827Z,1.80
2018-12-11T14:48:03.112Z,1.80
2018-12-11T14:50:32.212Z,1.80
2018-12-11T14:53:01.355Z,1.80
2018-12-11T14:55:30.556Z,1.80
2018-12-11T14:57:59.819Z,1.80
2018-12-11T15:00:28.943Z,1.70
2018-12-11T15:02:58.311Z,1.60
2018-12-11T15:05:27.559Z,1.50
2018-12-11T15:07:57.080Z,1.50
2018-12-11T15:10:26.345Z,1.50
2018-12-11T15:12:55.524Z,1.50
2018-12-11T15:15:24.566Z,1.50
2018-12-11T15:17:53.829Z,1.50
2018-12-11T15:20:23.230Z,1.50
2018-12-11T15:22:52.679Z,1.50
2018-12-11T15:25:21.776Z,1.40
2018-12-11T15:27:50.923Z,1.40
2018-12-11T15:30:20.063Z,1.40
2018-12-11T15:32:49.267Z,1.40
2018-12-11T15:35:18.475Z,1.40
2018-12-11T15:37:51.535Z,1.40
2018-12-11T15:40:21.759Z,1.50
2018-12-11T15:42:50.954Z,1.50
2018-12-11T15:45:20.910Z,1.50
2018-12-11T15:47:50.128Z,1.50
2018-12-11T15:50:19.525Z,1.50
2018-12-11T15:52:48.773Z,1.60
2018-12-11T15:55:17.889Z,1.60
2018-12-11T15:57:47.006Z,1.50
2018-12-11T16:00:16.246Z,1.50
2018-12-11T16:02:45.432Z,1.60
2018-12-11T16:05:14.650Z,1.60
2018-12-11T16:07:43.862Z,1.60
2018-12-11T16:10:13.147Z,1.60
2018-12-11T16:12:42.391Z,1.60
2018-12-11T16:15:11.491Z,1.50
2018-12-11T16:17:40.602Z,1.50
2018-12-11T16:20:09.825Z,1.50
2018-12-11T16:22:39.004Z,1.50
2018-12-11T16:25:08.235Z,1.50
2018-12-11T16:27:37.652Z,1.50
2018-12-11T16:30:07.329Z,1.50
2018-12-11T16:32:36.487Z,1.60
2018-12-11T16:35:05.935Z,1.60
2018-12-11T16:37:35.322Z,1.60
2018-12-11T16:40:05.927Z,1.60
2018-12-11T16:42:35.011Z,1.60
2018-12-11T16:45:04.890Z,1.50
2018-12-11T16:47:34.075Z,1.60
2018-12-11T16:50:03.230Z,1.60
2018-12-11T16:52:32.375Z,1.50
2018-12-11T16:55:01.550Z,1.60
2018-12-11T16:57:30.727Z,1.60
2018-12-11T17:00:00.639Z,1.60
2018-12-11T17:02:29.779Z,1.60
2018-12-11T17:04:58.937Z,1.60
2018-12-11T17:07:28.299Z,1.50
2018-12-11T17:09:57.560Z,1.50
2018-12-11T17:12:26.686Z,1.50
2018-12-11T17:14:56.876Z,1.50
2018-12-11T17:17:26.130Z,1.60
2018-12-11T17:19:55.307Z,1.60
2018-12-11T17:22:24.488Z,1.60
2018-12-11T17:24:53.620Z,1.50
2018-12-11T17:27:22.766Z,1.50
2018-12-11T17:29:51.895Z,1.60
2018-12-11T17:32:21.110Z,1.60
2018-12-11T17:34:50.278Z,1.50
2018-12-11T17:37:19.510Z,1.60
2018-12-11T17:40:00.546Z,1.60
2018-12-11T17:42:29.777Z,1.60
2018-12-11T17:44:58.961Z,1.50
2018-12-11T17:47:28.087Z,1.60
2018-12-11T17:49:57.215Z,1.50
2018-12-11T17:52:26.354Z,1.50
2018-12-11T17:54:55.492Z,1.50
2018-12-11T17:57:24.659Z,1.50
2018-12-11T17:59:53.819Z,1.50
2018-12-11T18:02:27.159Z,1.50
2018-12-11T18:04:56.380Z,1.50
2018-12-11T18:07:25.654Z,1.50
2018-12-11T18:09:54.732Z,1.50
2018-12-11T18:12:23.844Z,1.50
2018-12-11T18:14:53.069Z,1.50
2018-12-11T18:17:22.183Z,1.50
2018-12-11T18:19:51.350Z,1.40
2018-12-11T18:22:20.506Z,1.30
2018-12-11T18:24:49.697Z,1.30
2018-12-11T18:27:18.941Z,1.20
2018-12-11T18:29:48.095Z,1.20
2018-12-11T18:32:17.459Z,1.20
2018-12-11T18:34:49.799Z,1.10
2018-12-11T18:37:18.886Z,1.10
2018-12-11T18:39:48.126Z,1.00
2018-12-11T18:42:17.267Z,1.00
2018-12-11T18:44:46.445Z,1.00
2018-12-11T18:47:15.591Z,0.90
2018-12-11T18:49:44.727Z,1.00
2018-12-11T18:52:13.822Z,1.10
2018-12-11T18:54:42.952Z,1.10
2018-12-11T18:57:12.224Z,1.20
2018-12-11T18:59:41.736Z,1.10
2018-12-11T19:02:11.097Z,1.20
2018-12-11T19:04:40.389Z,1.10
2018-12-11T19:07:09.830Z,1.10
2018-12-11T19:09:39.268Z,1.10
2018-12-11T19:12:08.788Z,1.10
2018-12-11T19:14:38.133Z,1.10
2018-12-11T19:17:07.429Z,1.10
2018-12-11T19:19:36.954Z,1.00
2018-12-11T19:22:06.396Z,1.00
2018-12-11T19:24:45.675Z,0.90
2018-12-11T19:27:15.319Z,0.80
2018-12-11T19:29:44.645Z,0.80
2018-12-11T19:32:14.171Z,0.80
2018-12-11T19:34:43.748Z,0.80
2018-12-11T19:37:13.215Z,0.80
2018-12-11T19:39:42.668Z,0.80
2018-12-11T19:42:12.146Z,0.90
2018-12-11T19:44:41.750Z,0.90
2018-12-11T19:47:11.247Z,0.90
2018-12-11T19:49:40.472Z,1.00
2018-12-11T19:52:10.000Z,1.00
2018-12-11T19:54:39.711Z,1.00
2018-12-11T19:57:09.951Z,1.00
2018-12-11T19:59:39.533Z,1.00
2018-12-11T20:02:09.054Z,1.00
2018-12-11T20:04:38.411Z,1.00
2018-12-11T20:07:07.847Z,1.00
2018-12-11T20:09:41.288Z,1.00
2018-12-11T20:12:10.742Z,1.00
2018-12-11T20:14:40.091Z,1.00
2018-12-11T20:17:09.423Z,0.90
2018-12-11T20:19:38.882Z,0.90
2018-12-11T20:22:08.338Z,0.90
2018-12-11T20:24:37.722Z,0.90
2018-12-11T20:27:07.315Z,0.90
2018-12-11T20:29:37.019Z,0.90
2018-12-11T20:32:06.577Z,0.90
2018-12-11T20:34:36.138Z,1.00
2018-12-11T20:37:05.717Z,1.00
2018-12-11T20:39:35.163Z,1.10
2018-12-11T20:42:04.611Z,1.10
2018-12-11T20:44:34.098Z,1.10
2018-12-11T20:47:04.156Z,1.20
2018-12-11T20:49:33.481Z,1.10
2018-12-11T20:52:02.973Z,1.10
2018-12-11T20:54:33.676Z,1.10
2018-12-11T20:57:03.353Z,1.10
2018-12-11T20:59:32.695Z,1.10
2018-12-11T21:02:02.220Z,1.00
2018-12-11T21:04:31.758Z,0.90
2018-12-11T21:07:00.872Z,0.90
2018-12-11T21:09:30.078Z,1.00
2018-12-11T21:11:59.226Z,1.00
2018-12-11T21:14:28.382Z,1.00
2018-12-11T21:16:57.514Z,1.00
2018-12-11T21:19:27.111Z,1.00
2018-12-11T21:21:56.726Z,1.10
2018-12-11T21:24:26.774Z,1.10
2018-12-11T21:26:56.538Z,1.10
2018-12-11T21:29:27.131Z,1.10
2018-12-11T21:31:57.006Z,1.10
2018-12-11T21:34:26.992Z,1.10
2018-12-11T21:36:57.061Z,1.10
2018-12-11T21:39:26.700Z,1.10
2018-12-11T21:41:56.419Z,1.10
2018-12-11T21:44:25.972Z,1.10
2018-12-11T21:46:55.739Z,1.10
2018-12-11T21:49:25.430Z,1.20
2018-12-11T21:51:55.157Z,1.30
2018-12-11T21:54:25.495Z,1.20
2018-12-11T21:56:55.275Z,1.20
2018-12-11T21:59:24.978Z,1.20
2018-12-11T22:01:54.703Z,1.20
2018-12-11T22:04:24.271Z,1.10
2018-12-11T22:06:53.750Z,1.10
2018-12-11T22:09:23.427Z,1.10
2018-12-11T22:11:52.887Z,1.10
2018-12-11T22:14:23.218Z,1.10
2018-12-11T22:16:52.718Z,1.00
2018-12-11T22:19:22.196Z,1.00
2018-12-11T22:21:51.987Z,0.90
2018-12-11T22:24:21.092Z,0.80
2018-12-11T22:26:50.207Z,0.80
2018-12-11T22:29:19.277Z,0.70
2018-12-11T22:31:48.401Z,0.70
2018-12-11T22:34:17.546Z,0.70
2018-12-11T22:36:46.625Z,0.70
2018-12-11T22:39:15.720Z,0.70
2018-12-11T22:41:44.868Z,0.70
2018-12-11T22:44:13.938Z,0.70
2018-12-11T22:46:43.224Z,0.70
2018-12-11T22:49:12.299Z,0.70
2018-12-11T22:51:42.102Z,0.70
2018-12-11T22:54:11.594Z,0.70
2018-12-11T22:56:40.739Z,0.80
2018-12-11T22:59:09.813Z,0.70
2018-12-11T23:01:38.953Z,0.70
2018-12-11T23:04:08.027Z,0.70
2018-12-11T23:06:37.178Z,0.80
2018-12-11T23:09:08.048Z,0.80
2018-12-11T23:11:37.290Z,0.80
2018-12-11T23:14:06.346Z,0.80
2018-12-11T23:16:35.543Z,0.90
2018-12-11T23:19:04.664Z,0.80
2018-12-11T23:21:33.821Z,0.80
2018-12-11T23:24:02.991Z,0.80
2018-12-11T23:26:33.026Z,0.80
2018-12-11T23:29:02.157Z,0.80
2018-12-11T23:31:31.260Z,0.80
2018-12-11T23:34:00.369Z,0.80
2018-12-11T23:36:29.459Z,0.80
2018-12-11T23:38:58.582Z,0.80
2018-12-11T23:41:27.722Z,0.80
2018-12-11T23:43:56.827Z,0.80
2018-12-11T23:46:25.914Z,0.90
2018-12-11T23:48:55.048Z,0.90
2018-12-11T23:51:24.140Z,0.80
2018-12-11T23:53:53.274Z,0.80
2018-12-11T23:56:22.414Z,0.80
2018-12-11T23:58:51.482Z,0.80
